Aviation Digital Data Service (ADDS)

Output produced by TAFs form (0647 UTC 23 April 2014)
found at http://aviationweather.gov/adds/tafs/
 
KEGE 230533Z 2306/2406 20005KT P6SM VCSH SCT060 BKN100 WS020/22030KT 
     TEMPO 2306/2308 20020G30KT P6SM SCT060 OVC100 
     FM230900 29012G25KT P6SM VCSH BKN060 OVC100 
     FM231200 27010KT P6SM VCSH BKN060 
     FM231600 25015G25KT P6SM VCSH BKN060 
     FM240200 09005KT P6SM SCT090 AMD LTD TO CLD VIS AND WIND TIL 231400